Time;durP1;ratioP1;P1;durP2;ratioP2;P2;SDS_P1;SDS_P2;PMS_P1;PMS_P2;Temp;Humidity;BMP_temperature;BMP_pressure;BME280_temperature;BME280_humidity;BME280_pressure;Samples;Min_cycle;Max_cycle;Signal;HPM_P1;HPM_P2
2021/12/07 00:01:42;;;;;;;27.17;12.60;;;0.80;99.90;;;;;;4134338;28;20476;-78
2021/12/07 00:03:45;;;;;;;25.90;11.90;;;0.80;99.90;;;;;;4143273;28;20473;-78
2021/12/07 00:05:47;;;;;;;32.33;13.00;;;0.80;99.90;;;;;;4142301;28;20466;-78
2021/12/07 00:07:49;;;;;;;28.17;11.57;;;0.80;99.90;;;;;;4135512;28;20553;-78
2021/12/07 00:09:51;;;;;;;28.20;12.60;;;0.80;99.90;;;;;;4136038;28;20517;-78
2021/12/07 00:11:53;;;;;;;27.47;12.07;;;0.80;99.90;;;;;;4132535;28;20461;-78
2021/12/07 00:13:58;;;;;;;28.43;12.63;;;0.60;99.90;;;;;;4142904;28;20688;-78
2021/12/07 00:15:59;;;;;;;28.33;11.13;;;0.80;99.90;;;;;;4147881;28;20902;-78
2021/12/07 00:18:03;;;;;;;27.93;11.97;;;0.80;99.90;;;;;;4144980;28;20487;-78
2021/12/07 00:20:09;;;;;;;26.63;11.77;;;0.80;99.90;;;;;;4147937;28;21020;-78
2021/12/07 00:22:11;;;;;;;30.07;12.83;;;0.80;99.90;;;;;;4145384;28;20476;-79
2021/12/07 00:24:14;;;;;;;27.30;11.97;;;0.80;99.90;;;;;;4145632;28;20526;-78
2021/12/07 00:26:16;;;;;;;26.80;11.43;;;0.80;99.90;;;;;;4146745;28;20504;-78
2021/12/07 00:28:20;;;;;;;29.83;12.23;;;0.80;99.90;;;;;;4141713;28;20528;-78
2021/12/07 00:30:27;;;;;;;32.43;13.63;;;0.80;99.90;;;;;;4147578;28;20492;-78
2021/12/07 00:32:32;;;;;;;30.83;12.80;;;0.70;99.90;;;;;;4141511;28;20502;-78
2021/12/07 00:34:56;;;;;;;30.43;12.93;;;0.70;99.90;;;;;;4132223;28;20829;-78
2021/12/07 00:36:57;;;;;;;28.43;12.13;;;0.70;99.90;;;;;;4136865;28;20457;-78
2021/12/07 00:38:59;;;;;;;27.73;12.73;;;0.70;99.90;;;;;;4147617;28;20861;-78
2021/12/07 00:41:02;;;;;;;30.00;11.97;;;0.70;99.90;;;;;;4144503;28;20532;-78
2021/12/07 00:43:04;;;;;;;26.57;11.70;;;0.70;99.90;;;;;;4146625;28;21035;-78
2021/12/07 00:45:08;;;;;;;26.87;12.23;;;0.70;99.90;;;;;;4147739;28;20515;-78
2021/12/07 00:47:10;;;;;;;33.43;12.87;;;0.70;99.90;;;;;;4140833;28;20564;-78
2021/12/07 00:49:12;;;;;;;28.37;12.07;;;0.60;99.90;;;;;;4141346;28;20535;-78
2021/12/07 00:51:15;;;;;;;28.27;12.63;;;0.60;99.90;;;;;;4133927;28;20841;-78
2021/12/07 00:53:17;;;;;;;29.43;13.20;;;0.60;99.90;;;;;;4159913;28;20481;-78
2021/12/07 00:55:22;;;;;;;31.50;12.97;;;0.50;99.90;;;;;;4150341;28;20605;-78
2021/12/07 00:57:25;;;;;;;33.20;13.20;;;0.50;99.90;;;;;;4137283;28;20476;-78
2021/12/07 00:59:26;;;;;;;31.33;13.73;;;0.50;99.90;;;;;;4148145;28;20466;-79
2021/12/07 01:01:28;;;;;;;30.63;13.20;;;0.50;99.90;;;;;;4145449;28;20480;-79
2021/12/07 01:03:31;;;;;;;34.03;13.93;;;0.40;99.90;;;;;;4142954;28;20541;-79
2021/12/07 01:05:35;;;;;;;29.50;12.87;;;0.40;99.90;;;;;;4144849;28;20448;-78
2021/12/07 01:07:55;;;;;;;30.80;13.37;;;0.40;99.90;;;;;;4142016;28;20466;-78
2021/12/07 01:26:12;;;;;;;37.23;15.00;;;0.20;99.90;;;;;;4146518;28;20470;-79
2021/12/07 01:28:22;;;;;;;34.70;14.13;;;0.20;99.90;;;;;;4140718;28;20480;-79
2021/12/07 01:30:36;;;;;;;31.93;13.00;;;0.20;99.90;;;;;;4137314;28;20542;-78
2021/12/07 01:32:59;;;;;;;33.73;14.03;;;0.20;99.90;;;;;;4138967;28;20502;-78
2021/12/07 01:37:34;;;;;;;30.53;12.37;;;0.20;99.90;;;;;;4142144;28;20465;-78
2021/12/07 01:39:58;;;;;;;33.17;13.97;;;0.10;99.90;;;;;;4145057;28;20451;-78
2021/12/07 01:44:39;;;;;;;32.30;13.47;;;0.10;99.90;;;;;;4147190;28;21002;-78
2021/12/07 01:46:51;;;;;;;31.07;12.93;;;0.10;99.90;;;;;;4142531;28;20482;-78
2021/12/07 01:51:31;;;;;;;32.23;12.03;;;0.10;99.90;;;;;;4132745;28;20533;-79
2021/12/07 02:00:39;;;;;;;30.70;12.77;;;0.00;99.90;;;;;;4145388;28;21022;-78
2021/12/07 02:02:41;;;;;;;33.43;13.17;;;0.00;99.90;;;;;;4145018;28;20562;-79
2021/12/07 02:04:44;;;;;;;31.97;12.83;;;0.00;99.90;;;;;;4129619;28;20486;-78
2021/12/07 02:06:46;;;;;;;30.60;13.10;;;0.00;99.90;;;;;;4141651;28;20601;-78
2021/12/07 02:08:48;;;;;;;35.67;12.93;;;0.00;99.90;;;;;;4138734;28;20460;-78
2021/12/07 02:10:52;;;;;;;30.13;12.93;;;0.00;99.90;;;;;;4132764;28;20503;-78
2021/12/07 02:13:02;;;;;;;33.57;14.50;;;-0.10;99.90;;;;;;4138158;28;20573;-78
2021/12/07 02:15:04;;;;;;;33.10;13.30;;;-0.10;99.90;;;;;;4146097;28;20931;-79
2021/12/07 02:17:10;;;;;;;31.37;13.00;;;-0.10;99.90;;;;;;4145032;28;20459;-79
2021/12/07 02:19:11;;;;;;;29.10;13.10;;;-0.10;99.90;;;;;;4142649;28;20513;-79
2021/12/07 02:21:17;;;;;;;33.37;13.87;;;-0.10;99.90;;;;;;4135824;28;20465;-78
2021/12/07 02:23:19;;;;;;;33.63;12.97;;;-0.10;99.90;;;;;;4131219;28;20487;-79
2021/12/07 02:25:21;;;;;;;28.80;12.30;;;-0.10;99.90;;;;;;4143369;28;20467;-78
2021/12/07 02:27:23;;;;;;;30.07;12.57;;;-0.10;99.90;;;;;;4143170;28;20511;-78
2021/12/07 02:29:25;;;;;;;27.97;12.13;;;-0.10;99.90;;;;;;4137582;28;20521;-78
2021/12/07 02:31:27;;;;;;;36.10;13.50;;;-0.10;99.90;;;;;;4146600;28;20987;-78
2021/12/07 02:33:29;;;;;;;30.83;12.63;;;-0.10;99.90;;;;;;4146092;28;20478;-79
2021/12/07 02:35:30;;;;;;;31.27;13.23;;;-0.20;99.90;;;;;;4144511;28;20902;-79
2021/12/07 02:37:36;;;;;;;31.07;12.43;;;-0.10;99.90;;;;;;4144042;28;20542;-79
2021/12/07 02:39:40;;;;;;;30.10;12.67;;;-0.20;99.90;;;;;;4145729;28;20454;-79
2021/12/07 02:41:42;;;;;;;29.83;12.67;;;-0.20;99.90;;;;;;4146258;28;20873;-79
2021/12/07 02:43:44;;;;;;;27.73;11.93;;;-0.20;99.90;;;;;;4146028;28;20546;-79
2021/12/07 02:45:46;;;;;;;33.10;13.50;;;-0.20;99.90;;;;;;4143423;28;20459;-79
2021/12/07 02:47:48;;;;;;;30.50;11.97;;;-0.20;99.90;;;;;;4144449;28;21018;-79
2021/12/07 02:49:50;;;;;;;30.13;12.60;;;-0.20;99.90;;;;;;4131686;28;20463;-78
2021/12/07 02:51:52;;;;;;;30.83;12.37;;;-0.20;99.90;;;;;;4143994;28;20499;-79
2021/12/07 02:53:56;;;;;;;30.57;12.70;;;-0.20;99.90;;;;;;4135178;28;20480;-78
2021/12/07 02:56:00;;;;;;;29.87;12.83;;;-0.20;99.90;;;;;;4138298;28;20475;-79
2021/12/07 02:58:02;;;;;;;28.67;12.50;;;-0.20;99.90;;;;;;4138671;28;20553;-79
2021/12/07 03:00:11;;;;;;;26.83;11.70;;;-0.20;99.90;;;;;;4137408;28;21020;-78
2021/12/07 03:02:15;;;;;;;27.97;12.10;;;-0.20;99.90;;;;;;4131508;28;20930;-79
2021/12/07 03:04:21;;;;;;;27.87;12.07;;;-0.20;99.90;;;;;;4137721;28;20475;-79
2021/12/07 03:06:31;;;;;;;26.73;11.97;;;-0.20;99.90;;;;;;4143938;28;21043;-79
2021/12/07 03:27:20;;;;;;;27.97;11.97;;;-0.20;99.90;;;;;;4135094;28;20450;-78
2021/12/07 03:29:22;;;;;;;28.07;11.90;;;-0.10;99.90;;;;;;4133928;28;20468;-78
2021/12/07 03:31:25;;;;;;;28.67;11.40;;;-0.20;99.90;;;;;;4132965;28;20499;-78
2021/12/07 03:33:27;;;;;;;27.40;11.43;;;-0.10;99.90;;;;;;4147240;28;20486;-79
2021/12/07 03:35:29;;;;;;;29.87;12.20;;;-0.20;99.90;;;;;;4148937;28;20463;-78
2021/12/07 03:37:31;;;;;;;29.47;12.20;;;-0.20;99.90;;;;;;4142338;28;20475;-78
2021/12/07 03:39:33;;;;;;;27.57;11.90;;;-0.20;99.90;;;;;;4146640;28;20807;-78
2021/12/07 03:41:35;;;;;;;28.17;11.57;;;-0.20;99.90;;;;;;4147782;28;20868;-78
2021/12/07 03:43:38;;;;;;;27.40;10.90;;;-0.20;99.90;;;;;;4147658;28;20479;-78
2021/12/07 03:45:40;;;;;;;29.33;12.20;;;-0.20;99.90;;;;;;4144639;28;20470;-78
2021/12/07 03:47:42;;;;;;;28.83;11.40;;;-0.20;99.90;;;;;;4148261;28;20458;-78
2021/12/07 03:49:44;;;;;;;28.20;11.67;;;-0.20;99.90;;;;;;4147694;28;20964;-78
2021/12/07 03:51:45;;;;;;;30.73;11.63;;;-0.20;99.90;;;;;;4147393;28;20855;-78
2021/12/07 03:53:47;;;;;;;30.43;12.57;;;-0.20;99.90;;;;;;4144770;28;20471;-78
2021/12/07 03:55:49;;;;;;;26.27;11.70;;;-0.20;99.90;;;;;;4149217;28;20458;-78
2021/12/07 03:57:51;;;;;;;26.83;11.77;;;-0.20;99.90;;;;;;4133436;28;20842;-78
2021/12/07 03:59:54;;;;;;;25.57;11.80;;;-0.20;99.90;;;;;;4136605;28;20467;-78
2021/12/07 04:01:56;;;;;;;27.30;12.40;;;-0.20;99.90;;;;;;4137896;28;21901;-78
2021/12/07 04:04:01;;;;;;;23.87;11.27;;;-0.20;99.90;;;;;;4141384;28;20973;-78
2021/12/07 04:06:06;;;;;;;22.43;10.90;;;-0.20;99.90;;;;;;4140741;28;20476;-78
2021/12/07 04:08:08;;;;;;;28.53;11.90;;;-0.20;99.90;;;;;;4142266;28;20474;-78
2021/12/07 04:10:13;;;;;;;25.27;11.00;;;-0.20;99.90;;;;;;4144767;28;20964;-78
2021/12/07 04:12:15;;;;;;;26.73;10.57;;;-0.10;99.90;;;;;;4133279;28;20507;-78
2021/12/07 04:14:16;;;;;;;22.83;10.97;;;-0.10;99.90;;;;;;4133115;28;20498;-78
2021/12/07 04:16:20;;;;;;;27.03;11.23;;;-0.10;99.90;;;;;;4145106;28;20483;-78
2021/12/07 04:18:22;;;;;;;27.93;11.20;;;-0.10;99.90;;;;;;4147845;28;20880;-78
2021/12/07 04:20:24;;;;;;;24.20;11.40;;;-0.10;99.90;;;;;;4147936;28;20935;-78
2021/12/07 04:22:26;;;;;;;23.77;10.47;;;-0.10;99.90;;;;;;4146426;28;20485;-78
2021/12/07 04:24:28;;;;;;;26.43;11.10;;;-0.10;99.90;;;;;;4154729;28;20458;-78
2021/12/07 04:26:31;;;;;;;25.30;11.20;;;-0.10;99.90;;;;;;4137826;28;20467;-78
2021/12/07 04:28:33;;;;;;;24.67;10.60;;;-0.10;99.90;;;;;;4147221;28;20565;-78
2021/12/07 04:30:37;;;;;;;26.40;11.73;;;-0.10;99.90;;;;;;4138031;28;20479;-78
2021/12/07 04:32:40;;;;;;;26.20;11.80;;;-0.10;99.90;;;;;;4144295;28;21054;-78
2021/12/07 04:34:41;;;;;;;28.93;11.10;;;-0.10;99.90;;;;;;4148267;28;20470;-78
2021/12/07 04:36:43;;;;;;;24.40;10.10;;;-0.10;99.90;;;;;;4146863;28;20513;-78
2021/12/07 04:38:45;;;;;;;25.33;10.83;;;-0.20;99.90;;;;;;4145507;28;20483;-78
2021/12/07 04:40:47;;;;;;;25.00;10.17;;;-0.10;99.90;;;;;;4147021;28;20826;-78
2021/12/07 04:42:50;;;;;;;27.37;11.07;;;-0.10;99.90;;;;;;4146827;28;20474;-77
2021/12/07 04:44:55;;;;;;;22.70;10.57;;;-0.10;99.90;;;;;;4145009;28;20505;-77
2021/12/07 04:47:07;;;;;;;25.50;11.50;;;-0.10;99.90;;;;;;4146206;28;20506;-78
2021/12/07 04:58:29;;;;;;;23.10;10.30;;;-0.10;99.90;;;;;;4138046;28;20509;-78
2021/12/07 05:00:30;;;;;;;22.63;10.57;;;-0.10;99.90;;;;;;4134955;28;20521;-78
2021/12/07 05:02:35;;;;;;;20.17;9.80;;;-0.20;99.90;;;;;;4147417;28;20530;-79
2021/12/07 05:04:38;;;;;;;23.40;10.13;;;-0.10;99.90;;;;;;4136070;28;20558;-79
2021/12/07 05:06:46;;;;;;;25.77;11.23;;;-0.20;99.90;;;;;;4140161;28;20509;-78
2021/12/07 05:08:55;;;;;;;22.03;9.97;;;-0.10;99.90;;;;;;4131969;28;20472;-78
2021/12/07 05:11:23;;;;;;;24.87;10.23;;;-0.10;99.90;;;;;;4140300;28;20479;-78
2021/12/07 05:13:31;;;;;;;23.07;10.27;;;-0.20;99.90;;;;;;4130338;28;20491;-78
2021/12/07 05:15:56;;;;;;;26.50;10.60;;;-0.20;99.90;;;;;;4138402;28;20473;-78
2021/12/07 05:18:05;;;;;;;26.07;10.33;;;-0.20;99.90;;;;;;4139973;28;20447;-78
2021/12/07 05:25:05;;;;;;;21.63;9.13;;;-0.20;99.90;;;;;;4142951;28;20471;-78
2021/12/07 05:38:46;;;;;;;21.23;9.80;;;-0.10;99.90;;;;;;4146010;28;20513;-79
2021/12/07 05:40:48;;;;;;;21.40;9.63;;;-0.20;99.90;;;;;;4140053;28;20861;-78
2021/12/07 05:42:51;;;;;;;23.50;9.80;;;-0.20;99.90;;;;;;4154373;28;20469;-77
2021/12/07 05:44:55;;;;;;;24.93;10.50;;;-0.20;99.90;;;;;;4139101;28;20455;-78
2021/12/07 05:46:57;;;;;;;22.40;10.43;;;-0.20;99.90;;;;;;4145278;28;20513;-78
2021/12/07 05:49:00;;;;;;;25.20;10.87;;;-0.10;99.90;;;;;;4141150;28;20454;-77
2021/12/07 05:51:02;;;;;;;24.90;10.83;;;-0.10;99.90;;;;;;4144211;28;20879;-78
2021/12/07 05:53:06;;;;;;;24.20;10.33;;;-0.10;99.90;;;;;;4139017;28;20510;-79
2021/12/07 05:55:10;;;;;;;21.10;10.17;;;-0.10;99.90;;;;;;4141404;28;20847;-78
2021/12/07 05:57:14;;;;;;;23.57;10.33;;;-0.20;99.90;;;;;;4145920;28;20459;-78
2021/12/07 05:59:16;;;;;;;21.17;9.50;;;-0.10;99.90;;;;;;4131103;28;20464;-78
2021/12/07 06:01:17;;;;;;;21.07;9.93;;;-0.20;99.90;;;;;;4147492;28;20478;-78
2021/12/07 06:03:19;;;;;;;19.77;9.27;;;-0.10;99.90;;;;;;4153756;28;20528;-78
2021/12/07 06:05:22;;;;;;;20.00;9.40;;;-0.10;99.90;;;;;;4134540;28;20483;-78
2021/12/07 06:07:23;;;;;;;24.97;10.07;;;-0.10;99.90;;;;;;4146305;28;20467;-78
2021/12/07 06:09:27;;;;;;;23.83;10.23;;;-0.10;99.90;;;;;;4145739;28;20463;-78
2021/12/07 06:11:28;;;;;;;20.47;9.73;;;-0.10;99.90;;;;;;4141059;28;20826;-78
2021/12/07 06:13:30;;;;;;;23.37;9.10;;;-0.10;99.90;;;;;;4142858;28;20491;-78
2021/12/07 06:15:34;;;;;;;21.23;9.50;;;-0.20;99.90;;;;;;4140379;28;21069;-78
2021/12/07 06:17:36;;;;;;;20.53;9.50;;;-0.10;99.90;;;;;;4146098;28;20477;-78
2021/12/07 06:19:38;;;;;;;20.53;9.53;;;-0.20;99.90;;;;;;4142121;28;20471;-78
2021/12/07 06:21:40;;;;;;;21.30;9.47;;;-0.10;99.90;;;;;;4138318;28;20836;-78
2021/12/07 06:23:42;;;;;;;21.20;9.67;;;-0.10;99.90;;;;;;4144177;28;20479;-78
2021/12/07 06:25:47;;;;;;;18.63;8.90;;;-0.10;99.90;;;;;;4133930;28;20561;-78
2021/12/07 06:27:49;;;;;;;22.67;9.77;;;-0.10;99.90;;;;;;4145885;28;20568;-79
2021/12/07 06:29:51;;;;;;;19.63;8.67;;;-0.10;99.90;;;;;;4142452;28;20919;-78
2021/12/07 06:31:54;;;;;;;21.27;9.50;;;-0.10;99.90;;;;;;4138204;28;20470;-78
2021/12/07 06:33:55;;;;;;;21.07;9.40;;;-0.10;99.90;;;;;;4141012;28;20985;-78
2021/12/07 06:36:00;;;;;;;21.40;9.47;;;-0.10;99.90;;;;;;4138807;28;20464;-79
2021/12/07 06:38:02;;;;;;;19.13;8.73;;;-0.10;99.90;;;;;;4145200;28;21269;-76
2021/12/07 06:40:05;;;;;;;21.80;9.97;;;-0.10;99.90;;;;;;4146623;28;21023;-81
2021/12/07 06:42:09;;;;;;;20.33;9.10;;;-0.10;99.90;;;;;;4145752;28;20920;-82
2021/12/07 06:44:10;;;;;;;20.17;9.60;;;-0.10;99.90;;;;;;4148180;28;20465;-79
2021/12/07 06:46:12;;;;;;;19.70;9.23;;;-0.10;99.90;;;;;;4136622;28;21020;-77
2021/12/07 06:48:14;;;;;;;19.70;9.20;;;-0.10;99.90;;;;;;4131236;28;20492;-78
2021/12/07 06:50:16;;;;;;;21.07;9.50;;;0.00;99.90;;;;;;4138428;28;20517;-78
2021/12/07 06:52:17;;;;;;;19.40;9.60;;;0.00;99.90;;;;;;4142033;28;20528;-78
2021/12/07 06:54:20;;;;;;;19.77;9.27;;;0.00;99.90;;;;;;4141883;28;20847;-78
2021/12/07 06:56:22;;;;;;;19.63;9.23;;;0.00;99.90;;;;;;4146204;28;20459;-79
2021/12/07 06:58:27;;;;;;;23.50;10.13;;;0.00;99.90;;;;;;4138452;28;20485;-78
2021/12/07 07:00:28;;;;;;;21.30;9.83;;;0.00;99.90;;;;;;4144516;28;20459;-78
2021/12/07 07:02:30;;;;;;;20.40;9.47;;;0.10;99.90;;;;;;4143778;28;20483;-78
2021/12/07 07:04:32;;;;;;;21.63;9.40;;;0.10;99.90;;;;;;4142001;28;20462;-78
2021/12/07 07:06:33;;;;;;;21.07;9.70;;;0.10;99.90;;;;;;4144756;28;20834;-79
2021/12/07 07:08:36;;;;;;;21.03;9.83;;;0.10;99.90;;;;;;4148070;28;20497;-78
2021/12/07 07:10:38;;;;;;;21.30;9.27;;;0.10;99.90;;;;;;4143610;28;20454;-78
2021/12/07 07:12:41;;;;;;;22.17;9.97;;;0.10;99.90;;;;;;4138222;28;20499;-78
2021/12/07 07:14:44;;;;;;;23.57;10.67;;;0.10;99.90;;;;;;4137294;28;20467;-78
2021/12/07 07:16:46;;;;;;;19.63;9.43;;;0.10;99.90;;;;;;4147003;28;20513;-78
2021/12/07 07:18:48;;;;;;;23.33;10.63;;;0.10;99.90;;;;;;4145007;28;20470;-80
2021/12/07 07:20:49;;;;;;;22.40;9.97;;;0.20;99.90;;;;;;4146023;28;20535;-80
2021/12/07 07:22:52;;;;;;;22.60;10.03;;;0.20;99.90;;;;;;4147952;28;20927;-79
2021/12/07 07:24:53;;;;;;;21.53;10.07;;;0.20;99.90;;;;;;4144890;28;20928;-79
2021/12/07 07:26:55;;;;;;;22.30;10.10;;;0.20;99.90;;;;;;4146163;28;20476;-79
2021/12/07 07:28:57;;;;;;;23.30;9.80;;;0.30;99.90;;;;;;4146157;28;20517;-79
2021/12/07 07:31:02;;;;;;;24.00;10.67;;;0.30;99.90;;;;;;4146004;28;20478;-78
2021/12/07 07:33:05;;;;;;;20.27;9.33;;;0.30;99.90;;;;;;4142277;28;21014;-79
2021/12/07 07:35:09;;;;;;;22.03;10.50;;;0.30;99.90;;;;;;4150976;28;20470;-79
2021/12/07 07:37:11;;;;;;;24.33;10.33;;;0.30;99.90;;;;;;4143211;28;20469;-79
2021/12/07 07:39:13;;;;;;;23.33;9.97;;;0.30;99.90;;;;;;4143982;28;20460;-79
2021/12/07 07:41:14;;;;;;;22.50;10.10;;;0.30;99.90;;;;;;4147755;28;20475;-79
2021/12/07 07:43:18;;;;;;;19.67;9.40;;;0.40;99.90;;;;;;4146644;28;20950;-79
2021/12/07 07:45:19;;;;;;;25.17;10.50;;;0.40;99.90;;;;;;4146256;28;20527;-79
2021/12/07 07:47:23;;;;;;;22.43;9.60;;;0.40;99.90;;;;;;4145111;28;20530;-79
2021/12/07 07:49:24;;;;;;;22.40;10.63;;;0.40;99.90;;;;;;4142494;28;20957;-79
2021/12/07 07:51:29;;;;;;;23.00;10.83;;;0.40;99.90;;;;;;4142766;28;20996;-79
2021/12/07 07:53:30;;;;;;;22.00;10.40;;;0.50;99.90;;;;;;4146667;28;20498;-79
2021/12/07 07:55:32;;;;;;;26.13;11.77;;;0.50;99.90;;;;;;4145870;28;20497;-79
2021/12/07 07:57:34;;;;;;;34.73;14.37;;;0.50;99.90;;;;;;4145006;28;21051;-79
2021/12/07 07:59:38;;;;;;;34.03;14.53;;;0.60;99.90;;;;;;4146196;28;20470;-79
2021/12/07 08:01:41;;;;;;;35.40;15.43;;;0.50;99.90;;;;;;4145974;28;20522;-79
2021/12/07 08:03:44;;;;;;;35.10;15.63;;;0.50;99.90;;;;;;4143362;28;20480;-79
2021/12/07 08:05:46;;;;;;;31.13;15.13;;;0.60;99.90;;;;;;4144448;28;20519;-79
2021/12/07 08:07:47;;;;;;;34.13;14.70;;;0.60;99.90;;;;;;4146137;28;20908;-79
2021/12/07 08:09:49;;;;;;;26.40;13.30;;;0.60;99.90;;;;;;4148461;28;20464;-79
2021/12/07 08:11:52;;;;;;;26.43;11.93;;;0.60;99.90;;;;;;4142503;28;20853;-79
2021/12/07 08:13:54;;;;;;;25.37;11.37;;;0.60;99.90;;;;;;4149488;28;20493;-79
2021/12/07 08:15:55;;;;;;;25.63;11.77;;;0.60;99.90;;;;;;4144742;28;20810;-79
2021/12/07 08:17:58;;;;;;;25.03;11.27;;;0.60;99.90;;;;;;4148368;28;20473;-79
2021/12/07 08:20:01;;;;;;;25.17;12.10;;;0.60;99.90;;;;;;4145919;28;20469;-79
2021/12/07 08:22:03;;;;;;;29.57;12.47;;;0.60;99.90;;;;;;4144962;28;20487;-79
2021/12/07 08:24:06;;;;;;;23.33;10.60;;;0.70;99.90;;;;;;4150360;28;20477;-79
2021/12/07 08:26:09;;;;;;;25.13;11.47;;;0.70;99.90;;;;;;4147041;28;20465;-78
2021/12/07 08:28:13;;;;;;;24.10;11.43;;;0.70;99.90;;;;;;4147494;28;20942;-79
2021/12/07 08:30:16;;;;;;;25.23;10.30;;;0.70;99.90;;;;;;4145122;28;20461;-79
2021/12/07 08:32:18;;;;;;;26.17;11.30;;;0.70;99.90;;;;;;4162404;22;20872;-74
2021/12/07 08:34:20;;;;;;;22.87;10.57;;;0.80;99.90;;;;;;4156605;28;20502;-73
2021/12/07 08:36:23;;;;;;;22.83;10.70;;;0.80;99.90;;;;;;4156057;28;21000;-74
2021/12/07 08:38:25;;;;;;;25.43;10.23;;;0.80;99.90;;;;;;4157860;28;20805;-74
2021/12/07 08:40:31;;;;;;;21.77;10.43;;;0.80;99.90;;;;;;4155567;28;20476;-73
2021/12/07 08:42:33;;;;;;;26.37;11.43;;;0.80;99.90;;;;;;4156544;28;20477;-75
2021/12/07 08:44:35;;;;;;;26.00;11.47;;;0.80;99.90;;;;;;4157812;28;20476;-74
2021/12/07 08:46:37;;;;;;;25.30;11.60;;;0.90;99.90;;;;;;4158092;28;20479;-74
2021/12/07 08:48:40;;;;;;;26.07;11.90;;;0.80;99.90;;;;;;4158080;28;20472;-73
2021/12/07 08:50:42;;;;;;;27.53;11.97;;;0.80;99.90;;;;;;4154584;28;20461;-74
2021/12/07 08:52:48;;;;;;;24.13;11.47;;;0.90;99.90;;;;;;4155166;28;20972;-73
2021/12/07 08:59:41;;;;;;;23.77;11.13;;;0.90;99.90;;;;;;4155006;28;20457;-74
2021/12/07 09:01:43;;;;;;;22.67;11.03;;;0.90;99.90;;;;;;4156097;28;20588;-76
2021/12/07 09:03:45;;;;;;;26.53;11.23;;;0.90;99.90;;;;;;4157098;28;20844;-74
2021/12/07 09:05:46;;;;;;;26.67;11.30;;;1.00;99.90;;;;;;4154367;28;20526;-74
2021/12/07 09:07:50;;;;;;;23.20;11.07;;;1.00;99.90;;;;;;4155716;28;20468;-73
2021/12/07 09:09:51;;;;;;;24.67;10.90;;;1.00;99.90;;;;;;4156453;28;20460;-73
2021/12/07 09:11:55;;;;;;;24.80;11.10;;;1.00;99.90;;;;;;4153681;28;20507;-74
2021/12/07 09:13:57;;;;;;;24.60;10.87;;;1.10;99.90;;;;;;4157908;28;20500;-76
2021/12/07 09:15:59;;;;;;;23.83;10.77;;;1.10;99.90;;;;;;4155949;28;20562;-74
2021/12/07 09:18:01;;;;;;;25.50;11.37;;;1.10;99.90;;;;;;4157471;28;21001;-75
2021/12/07 09:20:04;;;;;;;26.27;12.13;;;1.20;99.90;;;;;;4156330;28;20874;-74
2021/12/07 09:22:07;;;;;;;24.97;10.93;;;1.20;99.90;;;;;;4156714;28;20978;-74
2021/12/07 09:24:10;;;;;;;26.23;11.80;;;1.20;99.90;;;;;;4160034;28;20461;-74
2021/12/07 09:26:12;;;;;;;25.23;11.77;;;1.20;99.90;;;;;;4157447;28;20855;-75
2021/12/07 09:28:14;;;;;;;23.90;10.57;;;1.20;99.90;;;;;;4156196;28;20521;-72
2021/12/07 09:30:17;;;;;;;27.40;11.20;;;1.30;99.90;;;;;;4156877;28;20465;-73
2021/12/07 09:32:19;;;;;;;25.00;11.93;;;1.30;99.90;;;;;;4156909;28;20946;-75
2021/12/07 09:34:21;;;;;;;23.73;11.00;;;1.30;99.90;;;;;;4155993;28;20997;-73
2021/12/07 09:36:24;;;;;;;25.37;11.50;;;1.30;99.90;;;;;;4155615;28;20465;-74
2021/12/07 09:38:26;;;;;;;22.80;11.57;;;1.30;99.90;;;;;;4154692;28;20543;-73
2021/12/07 09:40:31;;;;;;;23.00;11.33;;;1.40;99.90;;;;;;4155151;28;20881;-71
2021/12/07 09:42:33;;;;;;;21.50;10.77;;;1.40;99.90;;;;;;4155864;28;20469;-75
2021/12/07 09:44:35;;;;;;;27.20;11.57;;;1.40;99.90;;;;;;4156000;28;20543;-74
2021/12/07 09:46:37;;;;;;;24.93;11.27;;;1.40;99.90;;;;;;4155495;28;20927;-74
2021/12/07 09:48:40;;;;;;;24.13;11.30;;;1.40;99.90;;;;;;4155001;28;20978;-73
2021/12/07 09:50:45;;;;;;;23.87;11.20;;;1.50;99.90;;;;;;4155384;28;20913;-73
2021/12/07 09:52:48;;;;;;;24.00;11.00;;;1.50;99.90;;;;;;4155462;28;20851;-73
2021/12/07 09:54:50;;;;;;;23.83;11.03;;;1.50;99.90;;;;;;4156760;28;20492;-74
2021/12/07 09:56:53;;;;;;;22.93;11.10;;;1.60;99.90;;;;;;4156218;28;20909;-74
2021/12/07 09:58:56;;;;;;;24.20;10.87;;;1.60;99.90;;;;;;4156525;28;20887;-74
2021/12/07 10:00:58;;;;;;;24.27;11.33;;;1.60;99.90;;;;;;4154402;28;20474;-73
2021/12/07 10:03:00;;;;;;;23.70;10.77;;;1.70;99.90;;;;;;4155772;28;20479;-74
2021/12/07 10:05:02;;;;;;;25.20;11.40;;;1.70;99.90;;;;;;4156148;28;20462;-75
2021/12/07 10:07:04;;;;;;;23.77;10.80;;;1.80;99.90;;;;;;4156393;28;20539;-73
2021/12/07 10:09:06;;;;;;;25.83;12.73;;;1.90;99.90;;;;;;4155999;28;20457;-75
2021/12/07 10:11:10;;;;;;;24.40;12.10;;;1.90;99.90;;;;;;4151117;28;20470;-75
2021/12/07 10:13:15;;;;;;;22.77;11.10;;;2.00;99.90;;;;;;4155494;28;20534;-74
2021/12/07 10:15:19;;;;;;;24.60;11.77;;;2.00;99.90;;;;;;4155570;28;20466;-74
2021/12/07 10:17:22;;;;;;;22.63;10.90;;;2.10;99.90;;;;;;4155492;28;20563;-73
2021/12/07 10:19:28;;;;;;;23.43;10.97;;;2.10;99.90;;;;;;4153570;28;20481;-75
2021/12/07 10:21:38;;;;;;;24.97;11.20;;;2.20;99.90;;;;;;4154915;28;20465;-74
2021/12/07 10:23:42;;;;;;;20.17;10.30;;;2.20;99.90;;;;;;4153784;28;21009;-73
2021/12/07 10:25:46;;;;;;;21.50;10.63;;;2.20;99.90;;;;;;4155177;28;20472;-74
2021/12/07 10:27:48;;;;;;;25.40;11.40;;;2.30;99.90;;;;;;4152714;28;20556;-73
2021/12/07 10:29:52;;;;;;;21.97;10.57;;;2.30;99.90;;;;;;4155403;28;20485;-73
2021/12/07 10:31:56;;;;;;;20.67;9.93;;;2.30;99.90;;;;;;4155855;28;20462;-74
2021/12/07 10:34:01;;;;;;;20.07;10.50;;;2.40;99.90;;;;;;4156259;28;20509;-74
2021/12/07 10:36:11;;;;;;;21.73;10.60;;;2.40;99.90;;;;;;4155393;28;20996;-75
2021/12/07 10:38:16;;;;;;;21.23;10.77;;;2.50;99.90;;;;;;4156062;28;20460;-74
2021/12/07 10:40:17;;;;;;;21.50;10.77;;;2.60;99.90;;;;;;4154422;28;20474;-74
2021/12/07 10:42:23;;;;;;;21.57;10.23;;;2.60;99.90;;;;;;4156046;28;20480;-76
2021/12/07 10:44:26;;;;;;;22.37;10.63;;;2.70;99.90;;;;;;4153906;28;20811;-75
2021/12/07 10:46:46;;;;;;;19.90;9.93;;;2.70;99.90;;;;;;4155326;28;20501;-75
2021/12/07 10:48:48;;;;;;;21.67;10.03;;;2.80;99.90;;;;;;4155918;28;20454;-74
2021/12/07 10:50:49;;;;;;;18.83;9.77;;;2.80;99.90;;;;;;4155380;28;20458;-74
2021/12/07 10:52:51;;;;;;;21.27;10.70;;;2.80;99.90;;;;;;4155417;28;20497;-73
2021/12/07 10:54:57;;;;;;;19.80;9.43;;;2.90;99.90;;;;;;4155952;28;20551;-74
2021/12/07 10:57:02;;;;;;;20.03;10.33;;;2.90;99.90;;;;;;4155315;28;20461;-74
2021/12/07 10:59:06;;;;;;;19.87;10.13;;;2.90;99.90;;;;;;4155579;28;20928;-75
2021/12/07 11:01:10;;;;;;;19.53;10.37;;;3.00;99.90;;;;;;4154953;28;20509;-74
2021/12/07 11:03:15;;;;;;;20.47;10.10;;;3.00;99.90;;;;;;4155597;28;20984;-74
2021/12/07 11:05:20;;;;;;;16.90;9.47;;;3.00;99.90;;;;;;4155716;28;20478;-74
2021/12/07 11:07:24;;;;;;;19.50;10.50;;;3.10;99.90;;;;;;4153786;28;20469;-74
2021/12/07 11:09:26;;;;;;;18.17;9.30;;;3.10;99.90;;;;;;4153427;28;20478;-74
2021/12/07 11:11:28;;;;;;;20.20;10.10;;;3.20;99.90;;;;;;4151720;28;20543;-74
2021/12/07 11:13:35;;;;;;;19.13;10.03;;;3.30;99.90;;;;;;4153793;28;20504;-74
2021/12/07 11:15:47;;;;;;;17.73;9.73;;;3.30;99.90;;;;;;4155610;28;20469;-76
2021/12/07 11:17:50;;;;;;;19.87;9.73;;;3.30;99.90;;;;;;4153933;28;20462;-75
2021/12/07 11:19:54;;;;;;;18.50;9.47;;;3.30;99.90;;;;;;4154458;28;20873;-75
2021/12/07 11:21:56;;;;;;;19.03;9.43;;;3.30;99.90;;;;;;4153870;28;20473;-76
2021/12/07 11:23:59;;;;;;;18.13;9.33;;;3.40;99.90;;;;;;4155574;28;20477;-77
2021/12/07 11:30:49;;;;;;;15.40;8.53;;;3.40;99.90;;;;;;4152230;28;20524;-75
2021/12/07 11:32:55;;;;;;;17.77;9.03;;;3.50;99.90;;;;;;4154420;28;20913;-75
2021/12/07 11:35:12;;;;;;;16.47;8.77;;;3.50;99.90;;;;;;4154136;28;20523;-78
2021/12/07 11:37:16;;;;;;;16.53;8.27;;;3.50;99.90;;;;;;4155312;28;20504;-77
2021/12/07 11:39:25;;;;;;;14.63;8.10;;;3.60;99.90;;;;;;4152620;28;20430;-78
2021/12/07 11:41:32;;;;;;;16.23;8.67;;;3.60;99.90;;;;;;4150887;28;20454;-77
2021/12/07 11:43:34;;;;;;;15.50;8.47;;;3.60;99.90;;;;;;4151868;28;20482;-79
2021/12/07 11:45:36;;;;;;;19.30;9.70;;;3.70;99.90;;;;;;4155182;28;20462;-77
2021/12/07 11:47:41;;;;;;;16.30;9.10;;;3.70;99.90;;;;;;4157162;28;20458;-77
2021/12/07 11:49:43;;;;;;;15.60;8.20;;;3.70;99.90;;;;;;4157956;28;20476;-83
2021/12/07 11:51:47;;;;;;;18.30;9.13;;;3.70;99.90;;;;;;4158648;28;20507;-77
2021/12/07 11:53:51;;;;;;;16.30;8.43;;;3.70;99.90;;;;;;4157566;28;20851;-75
2021/12/07 11:55:56;;;;;;;17.87;8.97;;;3.70;99.90;;;;;;4157185;28;20876;-78
2021/12/07 11:57:58;;;;;;;15.90;8.53;;;3.70;99.90;;;;;;4155018;28;20470;-75
2021/12/07 12:00:00;;;;;;;18.87;9.97;;;3.70;99.90;;;;;;4158456;28;20588;-76